Atkinson, New Hampshire
Current Conditions -  °F | °C
As of 7:54 PM on Friday 28 Nov 2014 (Local Time) from KLWM Reporting Station
Clear Clear  
Wind Chill: -7°   Ceiling: Unl
Heat Index: -3°   Visibility: 10mi
Dew Point: -9°   Wind: 6mph
Humidity: 63%   Direction: 290°WNW
Pressure: 30.18"   Gusts: NA
Location:  42.84°N, 71.15°W
Report Text: KLWM 290054Z 29005KT 10SM CLR M03/M09 A3018 RMK AO2 SLP223 T10331094
Loading
Personal Weather Stations






























Interactive Weather Map New forecast layout! Learn more

10-Day Weather Forecast

Advertisements
Track Severe Weather on mobile